createdAt,value
2022-08-15T00:00:03.822Z,28.3
2022-08-15T00:01:03.839Z,28.4
2022-08-15T00:02:04.039Z,28.4
2022-08-15T00:03:10.544Z,28.3
2022-08-15T00:04:05.359Z,28.3
2022-08-15T00:05:05.081Z,28.4
2022-08-15T00:06:03.809Z,28.4
2022-08-15T00:07:03.800Z,28.2
2022-08-15T00:08:03.807Z,28.3
2022-08-15T00:09:04.303Z,28.2
2022-08-15T00:10:10.958Z,28.3
2022-08-15T00:11:20.266Z,28.2
2022-08-15T00:12:04.670Z,28.3
2022-08-15T00:13:14.237Z,28.3
2022-08-15T00:14:03.804Z,28.4
2022-08-15T00:15:03.821Z,28.3
2022-08-15T00:16:03.914Z,28.3
2022-08-15T00:17:04.314Z,28.4
2022-08-15T00:18:03.803Z,28.4
2022-08-15T00:19:05.240Z,28.3
2022-08-15T00:20:03.813Z,28.3
2022-08-15T00:21:03.813Z,28.3
2022-08-15T00:22:03.817Z,28.3
2022-08-15T00:23:03.807Z,28.3
2022-08-15T00:24:03.823Z,28.3
2022-08-15T00:25:03.994Z,28.2
2022-08-15T00:26:28.360Z,28.2
2022-08-15T00:27:09.872Z,28.1
2022-08-15T00:28:03.819Z,28.2
2022-08-15T00:29:03.827Z,28.2
2022-08-15T00:30:05.779Z,28.2
2022-08-15T00:31:03.898Z,28.2
2022-08-15T00:32:49.806Z,28.2
2022-08-15T00:33:42.909Z,27.9
2022-08-15T00:34:03.812Z,28.0
2022-08-15T00:35:08.675Z,28.0
2022-08-15T00:36:51.988Z,28.1
2022-08-15T00:37:05.307Z,27.9
2022-08-15T00:38:12.849Z,28.0
2022-08-15T00:39:03.870Z,28.0
2022-08-15T00:40:03.838Z,28.0
2022-08-15T00:41:03.820Z,28.0
2022-08-15T00:42:03.819Z,28.1
2022-08-15T00:43:03.820Z,28.0
2022-08-15T00:44:07.058Z,27.9
2022-08-15T00:45:07.958Z,28.0
2022-08-15T00:46:03.845Z,28.0
2022-08-15T00:47:03.826Z,28.1
2022-08-15T00:48:03.877Z,28.1
2022-08-15T00:49:03.874Z,28.2
2022-08-15T00:50:03.948Z,28.3
2022-08-15T00:51:03.824Z,28.3
2022-08-15T00:52:03.857Z,28.2
2022-08-15T00:53:03.936Z,28.2
2022-08-15T00:54:04.294Z,28.3
2022-08-15T00:55:03.823Z,28.3
2022-08-15T00:56:03.861Z,28.2
2022-08-15T00:57:03.819Z,28.2
2022-08-15T00:58:04.150Z,28.2
2022-08-15T00:59:05.780Z,28.1
2022-08-15T01:00:03.841Z,28.2
2022-08-15T01:01:03.956Z,28.1
2022-08-15T01:02:03.845Z,28.1
2022-08-15T01:03:03.883Z,28.1
2022-08-15T01:04:03.844Z,28.1
2022-08-15T01:05:03.879Z,28.0
2022-08-15T01:06:03.828Z,28.0
2022-08-15T01:07:03.884Z,27.9
2022-08-15T01:08:05.364Z,28.0
2022-08-15T01:09:11.674Z,28.0
2022-08-15T01:10:03.859Z,28.0
2022-08-15T01:11:05.603Z,28.0
2022-08-15T01:12:04.032Z,28.0
2022-08-15T01:13:06.514Z,28.0
2022-08-15T01:14:54.640Z,27.9
2022-08-15T01:15:03.828Z,27.6
2022-08-15T01:16:03.835Z,27.8
2022-08-15T01:17:03.837Z,27.9
2022-08-15T01:18:22.765Z,27.9
2022-08-15T01:19:04.163Z,27.9
2022-08-15T01:20:04.525Z,27.9
2022-08-15T01:21:03.831Z,28.0
2022-08-15T01:22:04.551Z,27.9
2022-08-15T01:23:05.411Z,27.9
2022-08-15T01:24:03.862Z,27.9
2022-08-15T01:25:25.007Z,27.9
2022-08-15T01:26:41.504Z,27.9
2022-08-15T01:27:04.943Z,27.9
2022-08-15T01:28:03.831Z,27.9
2022-08-15T01:31:02.943Z,27.8
2022-08-15T01:31:07.542Z,27.5
2022-08-15T01:32:03.825Z,27.7
2022-08-15T01:33:03.874Z,27.7
2022-08-15T01:34:13.173Z,27.7
2022-08-15T01:35:03.826Z,27.7
2022-08-15T01:36:03.848Z,27.8
2022-08-15T01:37:03.838Z,27.8
2022-08-15T01:38:05.897Z,27.9
2022-08-15T01:39:07.957Z,27.8
2022-08-15T01:40:03.847Z,27.8
2022-08-15T01:41:04.044Z,27.7
2022-08-15T01:42:03.942Z,27.7
2022-08-15T01:43:03.932Z,27.7
2022-08-15T01:44:31.452Z,27.7
2022-08-15T01:45:03.951Z,27.6
2022-08-15T01:46:03.930Z,27.6
2022-08-15T01:47:03.953Z,27.7
2022-08-15T01:48:20.485Z,27.7
2022-08-15T01:49:05.339Z,27.7
2022-08-15T01:50:03.838Z,27.7
2022-08-15T01:51:03.855Z,27.7
2022-08-15T01:52:59.485Z,27.7
2022-08-15T01:53:17.231Z,27.3
2022-08-15T01:54:03.869Z,27.5
2022-08-15T01:55:05.307Z,27.6
2022-08-15T01:56:32.244Z,27.6
2022-08-15T01:57:03.873Z,27.6
2022-08-15T01:58:03.868Z,27.6
2022-08-15T01:59:03.852Z,27.7
2022-08-15T02:00:03.890Z,27.7
2022-08-15T02:01:03.920Z,27.6
2022-08-15T02:02:28.651Z,27.6
2022-08-15T02:03:03.902Z,27.4
2022-08-15T02:04:03.865Z,27.4
2022-08-15T02:05:03.843Z,27.5
2022-08-15T02:06:05.327Z,27.4
2022-08-15T02:07:03.843Z,27.5
2022-08-15T02:08:34.603Z,27.5
2022-08-15T02:09:03.837Z,27.4
2022-08-15T02:10:21.457Z,27.3
2022-08-15T02:11:03.848Z,27.3
2022-08-15T02:12:03.939Z,27.3
2022-08-15T02:13:12.387Z,27.2
2022-08-15T02:14:04.046Z,27.3
2022-08-15T02:15:03.879Z,27.4
2022-08-15T02:16:03.852Z,27.4
2022-08-15T02:17:03.844Z,27.3
2022-08-15T02:18:04.988Z,27.3
2022-08-15T02:19:12.317Z,27.2
2022-08-15T02:20:24.127Z,27.3
2022-08-15T02:21:03.865Z,27.3
2022-08-15T02:22:03.862Z,27.3
2022-08-15T02:23:03.966Z,27.3
2022-08-15T02:24:03.854Z,27.2
2022-08-15T02:25:03.854Z,27.2
2022-08-15T02:26:10.098Z,27.2
2022-08-15T02:27:03.851Z,27.1
2022-08-15T02:28:06.013Z,27.1
2022-08-15T02:29:06.650Z,27.0
2022-08-15T02:31:39.637Z,26.9
2022-08-15T02:32:05.134Z,27.0
2022-08-15T02:33:05.304Z,27.2
2022-08-15T02:34:10.916Z,27.2
2022-08-15T02:35:04.692Z,27.2
2022-08-15T02:36:04.599Z,27.2
2022-08-15T02:37:09.002Z,27.1
2022-08-15T02:38:04.596Z,27.1
2022-08-15T02:39:04.650Z,27.2
2022-08-15T02:40:47.295Z,27.2
2022-08-15T02:41:05.442Z,27.1
2022-08-15T02:42:04.604Z,27.2
2022-08-15T02:43:04.600Z,27.2
2022-08-15T02:44:05.841Z,27.2
2022-08-15T02:45:04.603Z,27.2
2022-08-15T02:46:27.901Z,27.2
2022-08-15T02:47:08.447Z,27.2
2022-08-15T02:48:27.505Z,27.2
2022-08-15T02:49:04.639Z,27.2
2022-08-15T02:50:04.596Z,27.2
2022-08-15T02:51:04.603Z,27.2
2022-08-15T02:52:04.608Z,27.1
2022-08-15T02:53:04.604Z,27.1
2022-08-15T02:54:37.880Z,27.1
2022-08-15T02:55:05.687Z,26.8
2022-08-15T02:56:05.525Z,27.0
2022-08-15T02:57:05.653Z,27.0
2022-08-15T02:58:05.747Z,27.0
2022-08-15T02:59:04.649Z,26.9
2022-08-15T03:00:18.625Z,26.9
2022-08-15T03:01:08.037Z,26.9
2022-08-15T03:02:04.671Z,27.0
2022-08-15T03:03:04.618Z,26.9
2022-08-15T03:04:27.601Z,26.9
2022-08-15T03:05:04.603Z,26.8
2022-08-15T03:06:04.609Z,26.9
2022-08-15T03:07:04.607Z,26.9
2022-08-15T03:08:04.600Z,26.9
2022-08-15T03:09:05.645Z,26.9
2022-08-15T03:10:04.626Z,26.9
2022-08-15T03:11:04.604Z,26.9
2022-08-15T03:12:07.526Z,27.0
2022-08-15T03:13:04.622Z,26.8
2022-08-15T03:14:04.612Z,26.8
2022-08-15T03:15:04.616Z,26.8
2022-08-15T03:17:55.847Z,26.6
2022-08-15T03:18:03.867Z,26.7
2022-08-15T03:19:03.871Z,26.8
2022-08-15T03:20:05.007Z,26.9
2022-08-15T03:21:03.873Z,26.9
2022-08-15T03:22:03.874Z,26.9
2022-08-15T03:23:03.900Z,26.8
2022-08-15T03:24:03.873Z,26.8
2022-08-15T03:25:03.880Z,26.7
2022-08-15T03:26:03.869Z,26.6
2022-08-15T03:27:03.890Z,26.5
2022-08-15T03:28:03.930Z,26.6
2022-08-15T03:29:05.321Z,26.5
2022-08-15T03:30:03.873Z,26.6
2022-08-15T03:31:03.962Z,26.6
2022-08-15T03:32:03.909Z,26.6
2022-08-15T03:33:03.940Z,26.6
2022-08-15T03:34:03.883Z,26.8
2022-08-15T03:35:03.879Z,26.8
2022-08-15T03:36:03.879Z,26.7
2022-08-15T03:37:03.889Z,26.7
2022-08-15T03:38:06.276Z,26.8
2022-08-15T03:39:03.898Z,26.7
2022-08-15T03:40:03.893Z,26.7
2022-08-15T03:41:03.890Z,26.7
2022-08-15T03:42:03.883Z,26.7
2022-08-15T03:43:09.171Z,26.7
2022-08-15T03:44:03.941Z,26.6
2022-08-15T03:45:04.117Z,26.6
2022-08-15T03:46:03.901Z,26.5
2022-08-15T03:47:03.919Z,26.5
2022-08-15T03:48:20.970Z,26.5
2022-08-15T03:49:10.093Z,26.5
2022-08-15T03:50:27.818Z,26.5
2022-08-15T03:51:04.285Z,26.4
2022-08-15T03:52:04.299Z,26.5
2022-08-15T03:53:04.373Z,26.6
2022-08-15T03:54:04.974Z,26.6
2022-08-15T03:55:04.290Z,26.5
2022-08-15T03:56:04.371Z,26.5
2022-08-15T03:57:04.324Z,26.5
2022-08-15T03:58:04.345Z,26.5
2022-08-15T03:59:04.338Z,26.5
2022-08-15T04:00:05.528Z,26.4
2022-08-15T04:01:04.402Z,26.4
2022-08-15T04:02:05.131Z,26.4
2022-08-15T04:03:04.531Z,26.4
2022-08-15T04:04:04.302Z,26.4
2022-08-15T04:05:04.283Z,26.4
2022-08-15T04:06:06.783Z,26.4
2022-08-15T04:07:04.341Z,26.4
2022-08-15T04:08:04.296Z,26.3
2022-08-15T04:09:14.162Z,26.4
2022-08-15T04:10:04.304Z,26.4
2022-08-15T04:11:04.304Z,26.5
2022-08-15T04:12:04.303Z,26.5
2022-08-15T04:13:04.285Z,26.5
2022-08-15T04:14:04.302Z,26.4
2022-08-15T04:15:04.300Z,26.4
2022-08-15T04:16:06.442Z,26.3
2022-08-15T04:17:15.012Z,26.0
2022-08-15T04:18:05.669Z,26.2
2022-08-15T04:19:04.321Z,26.1
2022-08-15T04:20:04.302Z,26.2
2022-08-15T04:21:04.536Z,26.3
2022-08-15T04:22:06.431Z,26.3
2022-08-15T04:23:04.304Z,26.3
2022-08-15T04:24:25.831Z,26.3
2022-08-15T04:25:12.391Z,26.3
2022-08-15T04:26:08.026Z,26.4
2022-08-15T04:27:04.568Z,26.4
2022-08-15T04:28:06.740Z,26.5
2022-08-15T04:29:04.300Z,26.4
2022-08-15T04:30:04.302Z,26.4
2022-08-15T04:31:04.310Z,26.4
2022-08-15T04:32:04.313Z,26.4
2022-08-15T04:33:22.290Z,26.4
2022-08-15T04:34:47.545Z,26.2
2022-08-15T04:35:04.333Z,26.3
2022-08-15T04:36:04.300Z,26.4
2022-08-15T04:37:12.179Z,26.4
2022-08-15T04:39:54.643Z,26.2
2022-08-15T04:41:16.453Z,26.2
2022-08-15T04:41:35.596Z,26.1
2022-08-15T04:42:04.291Z,26.3
2022-08-15T04:43:04.241Z,26.4
2022-08-15T04:44:04.314Z,26.4
2022-08-15T04:45:04.246Z,26.5
2022-08-15T04:46:04.253Z,26.5
2022-08-15T04:47:04.240Z,26.5
2022-08-15T04:48:04.240Z,26.5
2022-08-15T04:49:08.064Z,26.5
2022-08-15T04:50:04.243Z,26.6
2022-08-15T04:51:04.246Z,26.6
2022-08-15T04:52:04.243Z,26.6
2022-08-15T04:53:04.245Z,26.5
2022-08-15T04:54:04.294Z,26.7
2022-08-15T04:55:04.240Z,26.7
2022-08-15T04:56:04.237Z,26.7
2022-08-15T04:57:04.234Z,26.6
2022-08-15T04:58:42.778Z,26.7
2022-08-15T04:59:05.484Z,26.6
2022-08-15T05:00:05.933Z,26.7
2022-08-15T05:01:06.025Z,26.8
2022-08-15T05:02:55.230Z,26.8
2022-08-15T05:03:04.462Z,26.5
2022-08-15T05:04:04.244Z,26.5
2022-08-15T05:05:04.247Z,26.6
2022-08-15T05:06:29.684Z,26.6
2022-08-15T05:07:05.756Z,26.5
2022-08-15T05:08:04.279Z,26.6
2022-08-15T05:09:04.251Z,26.7
2022-08-15T05:10:11.975Z,26.8
2022-08-15T05:11:04.266Z,26.8
2022-08-15T05:12:09.213Z,26.7
2022-08-15T05:13:04.236Z,26.7
2022-08-15T05:14:04.260Z,26.7
2022-08-15T05:15:05.691Z,26.7
2022-08-15T05:16:04.378Z,26.6
2022-08-15T05:17:04.270Z,26.5
2022-08-15T05:18:04.418Z,26.4
2022-08-15T05:19:04.276Z,26.3
2022-08-15T05:20:04.254Z,26.4
2022-08-15T05:21:04.262Z,26.3
2022-08-15T05:22:04.254Z,26.3
2022-08-15T05:23:06.650Z,26.2
2022-08-15T05:24:04.836Z,26.1
2022-08-15T05:25:04.256Z,26.2
2022-08-15T05:26:04.263Z,26.2
2022-08-15T05:27:04.267Z,26.1
2022-08-15T05:29:56.471Z,25.8
2022-08-15T05:30:04.147Z,25.9
2022-08-15T05:31:13.566Z,26.0
2022-08-15T05:32:04.138Z,26.1
2022-08-15T05:33:04.133Z,26.1
2022-08-15T05:34:05.475Z,26.1
2022-08-15T05:35:04.121Z,26.2
2022-08-15T05:36:04.143Z,26.1
2022-08-15T05:37:04.529Z,26.1
2022-08-15T05:38:04.143Z,26.2
2022-08-15T05:39:04.142Z,26.0
2022-08-15T05:40:08.658Z,26.0
2022-08-15T05:41:04.132Z,26.0
2022-08-15T05:42:12.144Z,26.1
2022-08-15T05:43:04.143Z,26.0
2022-08-15T05:44:04.130Z,26.0
2022-08-15T05:45:04.124Z,26.0
2022-08-15T05:46:04.244Z,26.1
2022-08-15T05:47:04.130Z,26.2
2022-08-15T05:48:04.151Z,26.1
2022-08-15T05:49:04.178Z,26.0
2022-08-15T05:50:04.170Z,26.0
2022-08-15T05:51:05.740Z,26.0
2022-08-15T05:52:05.532Z,26.0
2022-08-15T05:53:05.740Z,26.0
2022-08-15T05:54:05.418Z,26.0
2022-08-15T05:55:04.150Z,26.2
2022-08-15T05:56:04.135Z,26.1
2022-08-15T05:57:04.245Z,26.0
2022-08-15T05:58:37.682Z,25.9
2022-08-15T05:59:04.142Z,25.9
2022-08-15T06:00:07.238Z,25.9
2022-08-15T06:01:06.419Z,26.0
2022-08-15T06:02:34.585Z,26.1
2022-08-15T06:03:04.643Z,26.0
2022-08-15T06:04:04.162Z,26.0
2022-08-15T06:05:04.134Z,25.9
2022-08-15T06:06:04.141Z,25.9
2022-08-15T06:07:05.503Z,25.8
2022-08-15T06:08:08.108Z,25.9
2022-08-15T06:09:04.756Z,26.0
2022-08-15T06:10:04.155Z,25.9
2022-08-15T06:11:04.167Z,25.9
2022-08-15T06:12:22.243Z,25.9
2022-08-15T06:13:04.137Z,25.9
2022-08-15T06:14:04.145Z,26.0
2022-08-15T06:15:04.159Z,26.0
2022-08-15T06:16:45.643Z,26.0
2022-08-15T06:17:04.204Z,25.8
2022-08-15T06:18:04.177Z,25.8
2022-08-15T06:19:04.210Z,25.8
2022-08-15T06:20:04.145Z,25.9
2022-08-15T06:21:04.167Z,25.7
2022-08-15T06:22:04.154Z,25.7
2022-08-15T06:23:04.146Z,25.7
2022-08-15T06:24:31.298Z,25.4
2022-08-15T06:25:04.343Z,25.4
2022-08-15T06:26:04.298Z,25.6
2022-08-15T06:27:08.348Z,25.5
2022-08-15T06:28:04.299Z,25.5
2022-08-15T06:29:04.961Z,25.3
2022-08-15T06:30:04.314Z,25.5
2022-08-15T06:31:04.405Z,25.6
2022-08-15T06:32:04.312Z,25.7
2022-08-15T06:33:04.376Z,25.8
2022-08-15T06:34:05.364Z,25.8
2022-08-15T06:35:04.815Z,25.7
2022-08-15T06:36:04.304Z,25.6
2022-08-15T06:37:04.318Z,25.6
2022-08-15T06:38:36.775Z,25.7
2022-08-15T06:39:04.329Z,25.7
2022-08-15T06:40:04.414Z,25.7
2022-08-15T06:41:04.373Z,25.7
2022-08-15T06:42:04.309Z,25.7
2022-08-15T06:43:04.395Z,25.6
2022-08-15T06:44:04.332Z,25.5
2022-08-15T06:45:04.307Z,25.4
2022-08-15T06:46:39.947Z,25.5
2022-08-15T06:47:04.322Z,25.4
2022-08-15T06:48:58.404Z,25.4
2022-08-15T06:49:06.490Z,25.2
2022-08-15T06:50:04.321Z,25.5
2022-08-15T06:51:04.342Z,25.5
2022-08-15T06:52:10.402Z,25.5
2022-08-15T06:53:04.429Z,25.4
2022-08-15T06:54:25.375Z,25.5
2022-08-15T06:55:04.319Z,25.5
2022-08-15T06:56:05.274Z,25.4
2022-08-15T06:57:04.349Z,25.4
2022-08-15T06:58:55.718Z,25.3
2022-08-15T06:59:04.326Z,25.0
2022-08-15T07:00:04.307Z,25.2
2022-08-15T07:01:04.401Z,25.2
2022-08-15T07:02:17.184Z,25.2
2022-08-15T07:03:04.320Z,25.2
2022-08-15T07:04:04.320Z,25.2
2022-08-15T07:05:04.336Z,25.2
2022-08-15T07:06:04.995Z,25.2
2022-08-15T07:07:04.333Z,25.1
2022-08-15T07:08:04.317Z,25.1
2022-08-15T07:09:04.319Z,25.0
2022-08-15T07:10:30.797Z,24.9
2022-08-15T07:11:04.529Z,25.1
2022-08-15T07:12:04.635Z,25.2
2022-08-15T07:13:04.490Z,25.2
2022-08-15T07:14:20.867Z,25.1
2022-08-15T07:15:04.479Z,25.1
2022-08-15T07:16:05.125Z,25.1
2022-08-15T07:17:04.476Z,25.2
2022-08-15T07:18:04.479Z,25.3
2022-08-15T07:19:04.537Z,25.3
2022-08-15T07:20:34.791Z,25.3
2022-08-15T07:21:10.834Z,25.3
2022-08-15T07:22:06.244Z,25.3
2022-08-15T07:23:04.511Z,25.2
2022-08-15T07:24:33.667Z,25.2
2022-08-15T07:25:08.597Z,25.2
2022-08-15T07:26:07.107Z,25.3
2022-08-15T07:27:04.483Z,25.2
2022-08-15T07:28:04.482Z,25.2
2022-08-15T07:29:04.487Z,25.1
2022-08-15T07:30:12.563Z,25.1
2022-08-15T07:31:04.481Z,25.2
2022-08-15T07:32:18.805Z,25.3
2022-08-15T07:33:04.632Z,25.2
2022-08-15T07:34:04.520Z,25.3
2022-08-15T07:35:10.896Z,25.4
2022-08-15T07:36:05.932Z,25.4
2022-08-15T07:37:04.497Z,25.5
2022-08-15T07:38:21.488Z,25.5
2022-08-15T07:39:04.505Z,25.5
2022-08-15T07:40:04.499Z,25.5
2022-08-15T07:41:04.478Z,25.4
2022-08-15T07:42:04.560Z,25.3
2022-08-15T07:43:05.464Z,25.3
2022-08-15T07:44:20.824Z,25.3
2022-08-15T07:45:05.864Z,25.4
2022-08-15T07:46:23.400Z,25.5
2022-08-15T07:47:04.475Z,25.4
2022-08-15T07:48:07.131Z,25.4
2022-08-15T07:49:04.497Z,25.5
2022-08-15T07:50:04.495Z,25.6
2022-08-15T07:51:04.502Z,25.7
2022-08-15T07:52:12.339Z,25.7
2022-08-15T07:53:04.046Z,25.6
2022-08-15T08:05:30.110Z,25.6
2022-08-15T08:06:34.749Z,25.7
2022-08-15T08:07:04.096Z,25.8
2022-08-15T08:08:04.099Z,26.0
2022-08-15T08:09:04.140Z,26.0
2022-08-15T08:10:23.411Z,26.0
2022-08-15T08:11:04.077Z,25.9
2022-08-15T08:12:04.039Z,26.0
2022-08-15T08:13:19.746Z,25.9
2022-08-15T08:14:04.088Z,25.9
2022-08-15T08:15:04.055Z,25.9
2022-08-15T08:16:09.094Z,25.9
2022-08-15T08:17:04.060Z,25.8
2022-08-15T08:18:04.039Z,25.8
2022-08-15T08:19:04.078Z,25.8
2022-08-15T08:20:05.261Z,25.8
2022-08-15T08:21:07.420Z,25.8
2022-08-15T08:22:06.681Z,25.8
2022-08-15T08:23:04.060Z,25.9
2022-08-15T08:24:04.102Z,25.9
2022-08-15T08:25:08.702Z,25.9
2022-08-15T08:26:17.785Z,25.9
2022-08-15T08:27:04.048Z,25.9
2022-08-15T08:28:10.727Z,25.9
2022-08-15T08:29:04.050Z,25.9
2022-08-15T08:30:04.156Z,25.9
2022-08-15T08:31:04.267Z,26.0
2022-08-15T08:32:18.525Z,26.2
2022-08-15T08:33:04.076Z,26.2
2022-08-15T08:34:07.863Z,26.3
2022-08-15T08:35:04.068Z,26.3
2022-08-15T08:36:35.773Z,26.4
2022-08-15T08:37:04.069Z,26.2
2022-08-15T08:38:58.699Z,26.4
2022-08-15T08:39:09.707Z,26.1
2022-08-15T08:40:07.355Z,26.3
2022-08-15T08:41:12.147Z,26.4
2022-08-15T08:42:19.494Z,26.4
2022-08-15T08:43:04.795Z,26.4
2022-08-15T08:44:18.490Z,26.5
2022-08-15T08:45:04.281Z,26.5
2022-08-15T08:46:04.071Z,26.5
2022-08-15T08:47:04.859Z,26.5
2022-08-15T08:48:04.056Z,26.5
2022-08-15T08:49:04.152Z,26.6
2022-08-15T08:50:31.940Z,26.6
2022-08-15T08:51:10.145Z,26.6
2022-08-15T08:52:06.142Z,26.6
2022-08-15T08:53:04.050Z,26.6
2022-08-15T08:55:45.043Z,26.6
2022-08-15T08:55:50.188Z,26.4
2022-08-15T08:56:04.106Z,26.5
2022-08-15T08:57:05.916Z,26.7
2022-08-15T08:58:09.797Z,26.8
2022-08-15T08:59:05.014Z,26.8
2022-08-15T09:00:04.047Z,26.9
2022-08-15T09:01:04.091Z,26.9
2022-08-15T09:02:04.367Z,27.0
2022-08-15T09:03:04.176Z,26.9
2022-08-15T09:04:04.118Z,26.9
2022-08-15T09:05:06.186Z,26.9
2022-08-15T09:06:06.089Z,26.8
2022-08-15T09:07:04.266Z,26.8
2022-08-15T09:08:04.131Z,26.9
2022-08-15T09:09:04.421Z,26.8
2022-08-15T09:10:06.204Z,26.9
2022-08-15T09:11:04.058Z,26.9
2022-08-15T09:12:04.071Z,26.9
2022-08-15T09:13:04.081Z,26.9
2022-08-15T09:14:04.047Z,26.9
2022-08-15T09:15:15.030Z,27.0
2022-08-15T09:16:04.813Z,27.0
2022-08-15T09:17:30.216Z,27.0
2022-08-15T09:18:04.062Z,26.9
2022-08-15T09:19:04.085Z,27.0
2022-08-15T09:20:04.155Z,27.0
2022-08-15T09:21:04.077Z,27.1
2022-08-15T09:22:06.038Z,27.1
2022-08-15T09:23:15.019Z,27.1
2022-08-15T09:24:04.194Z,27.0
2022-08-15T09:25:06.793Z,27.1
2022-08-15T09:26:04.094Z,27.1
2022-08-15T09:27:04.127Z,27.2
2022-08-15T09:28:08.604Z,27.3
2022-08-15T09:29:18.114Z,27.2
2022-08-15T09:30:04.206Z,27.2
2022-08-15T09:31:04.177Z,27.1
2022-08-15T09:32:04.101Z,27.2
2022-08-15T09:33:04.184Z,27.2
2022-08-15T09:34:04.631Z,27.2
2022-08-15T09:35:04.152Z,27.3
2022-08-15T09:36:05.181Z,27.3
2022-08-15T09:37:04.100Z,27.2
2022-08-15T09:38:25.732Z,27.2
2022-08-15T09:39:04.097Z,27.2
2022-08-15T09:40:04.156Z,27.1
2022-08-15T09:41:16.376Z,26.8
2022-08-15T09:42:04.130Z,27.0
2022-08-15T09:43:16.634Z,27.1
2022-08-15T09:44:37.011Z,27.0
2022-08-15T09:45:04.114Z,27.0
2022-08-15T09:46:07.627Z,27.0
2022-08-15T09:47:10.723Z,26.9
2022-08-15T09:48:04.335Z,26.9
2022-08-15T09:49:04.136Z,27.0
2022-08-15T09:50:35.166Z,27.0
2022-08-15T09:51:04.127Z,27.0
2022-08-15T09:52:04.853Z,27.2
2022-08-15T09:53:04.151Z,27.2
2022-08-15T09:54:04.114Z,27.2
2022-08-15T09:55:04.281Z,27.1
2022-08-15T09:56:05.978Z,27.1
2022-08-15T09:57:04.236Z,27.1
2022-08-15T09:58:04.147Z,27.2
2022-08-15T09:59:04.255Z,27.3
2022-08-15T10:00:05.397Z,27.2
2022-08-15T10:01:04.279Z,27.3
2022-08-15T10:02:36.114Z,27.4
2022-08-15T10:03:04.106Z,27.3
2022-08-15T10:04:04.112Z,27.4
2022-08-15T10:05:04.638Z,27.5
2022-08-15T10:06:25.553Z,27.5
2022-08-15T10:07:04.105Z,27.4
2022-08-15T10:08:06.665Z,27.4
2022-08-15T10:09:07.054Z,27.3
2022-08-15T10:10:05.242Z,27.3
2022-08-15T10:11:04.178Z,27.3
2022-08-15T10:13:56.007Z,27.0
2022-08-15T10:14:14.262Z,27.0
2022-08-15T10:15:16.252Z,27.1
2022-08-15T10:16:03.906Z,27.0
2022-08-15T10:17:03.913Z,27.1
2022-08-15T10:18:04.172Z,27.2
2022-08-15T10:19:11.150Z,27.1
2022-08-15T10:20:18.853Z,27.2
2022-08-15T10:21:06.050Z,27.2
2022-08-15T10:22:04.575Z,27.2
2022-08-15T10:23:04.574Z,27.1
2022-08-15T10:24:04.611Z,27.1
2022-08-15T10:25:04.591Z,27.1
2022-08-15T10:26:06.567Z,27.2
2022-08-15T10:27:04.543Z,27.2
2022-08-15T10:28:36.590Z,27.2
2022-08-15T10:29:04.543Z,27.2
2022-08-15T10:30:45.614Z,27.3
2022-08-15T10:31:07.046Z,27.2
2022-08-15T10:32:36.827Z,27.3
2022-08-15T10:33:23.351Z,27.2
2022-08-15T10:34:10.827Z,27.3
2022-08-15T10:35:08.493Z,27.4
2022-08-15T10:36:29.767Z,27.4
2022-08-15T10:37:04.611Z,27.3
2022-08-15T10:38:04.521Z,27.3
2022-08-15T10:39:04.528Z,27.3
2022-08-15T10:40:04.595Z,27.3
2022-08-15T10:41:14.692Z,27.3
2022-08-15T10:42:22.214Z,27.4
2022-08-15T10:43:04.595Z,27.4
2022-08-15T10:44:05.477Z,27.5
2022-08-15T10:45:04.624Z,27.6
2022-08-15T10:46:04.610Z,27.6
2022-08-15T10:47:04.633Z,27.4
2022-08-15T10:48:13.271Z,27.2
2022-08-15T10:49:04.601Z,26.9
2022-08-15T10:50:04.616Z,26.9
2022-08-15T10:51:04.892Z,27.1
2022-08-15T10:52:04.625Z,27.2
2022-08-15T10:53:07.542Z,27.2
2022-08-15T10:54:04.513Z,27.3
2022-08-15T10:55:04.553Z,27.4
2022-08-15T10:56:59.650Z,27.3
2022-08-15T10:57:10.752Z,27.1
2022-08-15T10:58:04.079Z,27.3
2022-08-15T10:59:04.200Z,27.4
2022-08-15T11:00:35.358Z,27.3
2022-08-15T11:01:04.010Z,27.3
2022-08-15T11:02:04.013Z,27.4
2022-08-15T11:03:10.237Z,27.4
2022-08-15T11:04:50.228Z,27.4
2022-08-15T11:05:03.979Z,27.3
2022-08-15T11:06:04.014Z,27.5
2022-08-15T11:07:04.072Z,27.4
2022-08-15T11:08:04.046Z,27.4
2022-08-15T11:09:04.114Z,27.2
2022-08-15T11:10:04.343Z,27.2
2022-08-15T11:11:04.182Z,27.2
2022-08-15T11:12:03.990Z,27.3
2022-08-15T11:13:05.240Z,27.3
2022-08-15T11:14:03.984Z,27.4
2022-08-15T11:15:03.971Z,27.4
2022-08-15T11:16:32.427Z,27.4
2022-08-15T11:17:04.857Z,27.4
2022-08-15T11:18:21.947Z,27.5
2022-08-15T11:19:04.128Z,27.4
2022-08-15T11:20:11.097Z,27.4
2022-08-15T11:21:04.014Z,27.5
2022-08-15T11:22:03.962Z,27.3
2022-08-15T11:23:04.871Z,27.4
2022-08-15T11:24:03.983Z,27.4
2022-08-15T11:25:04.025Z,27.2
2022-08-15T11:26:03.967Z,27.2
2022-08-15T11:27:03.986Z,27.2
2022-08-15T11:28:03.985Z,27.2
2022-08-15T11:29:04.225Z,27.0
2022-08-15T11:30:21.636Z,26.9
2022-08-15T11:31:04.035Z,26.8
2022-08-15T11:32:25.381Z,27.0
2022-08-15T11:33:03.985Z,26.9
2022-08-15T11:34:37.247Z,26.9
2022-08-15T11:35:04.141Z,26.9
2022-08-15T11:36:05.526Z,26.9
2022-08-15T11:37:04.059Z,27.0
2022-08-15T11:38:20.199Z,27.1
2022-08-15T11:39:10.629Z,27.2
2022-08-15T11:40:08.387Z,27.3
2022-08-15T11:41:04.170Z,27.3
2022-08-15T11:42:04.102Z,27.3
2022-08-15T11:43:11.356Z,27.4
2022-08-15T11:44:04.029Z,27.3
2022-08-15T11:46:35.486Z,27.3
2022-08-15T11:47:10.353Z,27.1
2022-08-15T11:48:05.619Z,27.3
2022-08-15T11:49:04.384Z,27.1
2022-08-15T11:50:04.359Z,27.0
2022-08-15T11:51:04.357Z,26.9
2022-08-15T11:52:42.256Z,26.8
2022-08-15T11:53:05.599Z,26.5
2022-08-15T11:54:04.376Z,26.4
2022-08-15T11:55:04.374Z,26.5
2022-08-15T11:56:05.017Z,26.3
2022-08-15T11:57:04.374Z,26.1
2022-08-15T11:58:04.379Z,26.3
2022-08-15T11:59:05.975Z,26.4
2022-08-15T12:00:04.375Z,26.6
2022-08-15T12:01:04.374Z,26.6
2022-08-15T12:02:04.406Z,26.4
2022-08-15T12:13:09.482Z,26.3
2022-08-15T12:13:32.274Z,26.1
2022-08-15T12:14:24.102Z,26.2
2022-08-15T12:15:03.806Z,26.3
2022-08-15T12:16:26.694Z,26.3
2022-08-15T12:17:04.381Z,26.1
2022-08-15T12:18:07.697Z,26.1
2022-08-15T12:19:06.524Z,26.2
2022-08-15T12:20:24.986Z,26.1
2022-08-15T12:21:03.842Z,26.2
2022-08-15T12:22:53.505Z,26.3
2022-08-15T12:23:08.435Z,26.0
2022-08-15T12:24:05.157Z,26.2
2022-08-15T12:25:04.366Z,26.4
2022-08-15T12:26:39.746Z,26.4
2022-08-15T12:27:04.887Z,26.3
2022-08-15T12:28:07.689Z,26.4
2022-08-15T12:29:03.832Z,26.4
2022-08-15T12:30:03.820Z,26.4
2022-08-15T12:31:04.658Z,26.4
2022-08-15T12:32:03.922Z,26.4
2022-08-15T12:33:03.906Z,26.4
2022-08-15T12:34:27.574Z,26.5
2022-08-15T12:35:04.027Z,26.2
2022-08-15T12:36:03.889Z,26.1
2022-08-15T12:37:07.580Z,26.3
2022-08-15T12:38:03.817Z,26.3
2022-08-15T12:39:03.843Z,26.2
2022-08-15T12:40:03.855Z,26.3
2022-08-15T12:42:45.968Z,26.3
2022-08-15T12:43:00.881Z,26.2
2022-08-15T12:43:07.919Z,26.2
2022-08-15T12:44:03.847Z,26.4
2022-08-15T12:45:03.840Z,26.5
2022-08-15T12:46:03.851Z,26.5
2022-08-15T12:47:03.835Z,26.5
2022-08-15T12:48:05.950Z,26.3
2022-08-15T12:49:03.823Z,26.4
2022-08-15T12:50:06.970Z,26.5
2022-08-15T12:51:03.914Z,26.6
2022-08-15T12:52:03.983Z,26.7
2022-08-15T12:53:10.745Z,26.6
2022-08-15T12:54:03.924Z,26.6
2022-08-15T12:55:10.191Z,26.7
2022-08-15T12:56:30.507Z,26.7
2022-08-15T12:57:11.897Z,26.6
2022-08-15T12:58:04.188Z,26.7
2022-08-15T12:59:04.000Z,26.8
2022-08-15T13:00:03.868Z,26.9
2022-08-15T13:01:23.195Z,26.9
2022-08-15T13:02:03.972Z,26.7
2022-08-15T13:03:03.996Z,26.8
2022-08-15T13:04:06.318Z,26.9
2022-08-15T13:05:04.064Z,26.8
2022-08-15T13:06:34.750Z,26.8
2022-08-15T13:07:03.980Z,26.8
2022-08-15T13:08:26.900Z,26.9
2022-08-15T13:09:03.951Z,26.9
2022-08-15T13:11:00.817Z,26.7
2022-08-15T13:11:16.577Z,26.4
2022-08-15T13:12:16.626Z,26.6
2022-08-15T13:14:42.824Z,26.7
2022-08-15T13:14:48.475Z,26.7
2022-08-15T13:15:03.935Z,26.9
2022-08-15T13:16:03.935Z,26.8
2022-08-15T13:17:47.206Z,26.8
2022-08-15T13:18:05.364Z,27.0
2022-08-15T13:19:03.954Z,27.2
2022-08-15T13:20:04.986Z,27.2
2022-08-15T13:21:07.810Z,27.2
2022-08-15T13:22:06.233Z,27.3
2022-08-15T13:23:03.960Z,27.3
2022-08-15T13:24:17.041Z,27.4
2022-08-15T13:25:03.959Z,27.5
2022-08-15T13:26:03.888Z,27.6
2022-08-15T13:27:03.869Z,27.4
2022-08-15T13:28:05.795Z,27.3
2022-08-15T13:29:03.847Z,27.4
2022-08-15T13:30:06.389Z,27.6
2022-08-15T13:31:05.698Z,27.5
2022-08-15T13:32:03.850Z,27.5
2022-08-15T13:33:03.965Z,27.5
2022-08-15T13:34:03.865Z,27.6
2022-08-15T13:35:08.433Z,27.7
2022-08-15T13:36:03.827Z,27.6
2022-08-15T13:37:03.873Z,27.6
2022-08-15T13:38:06.787Z,27.4
2022-08-15T13:39:11.019Z,27.5
2022-08-15T13:40:03.888Z,27.7
2022-08-15T13:41:06.121Z,27.7
2022-08-15T13:42:05.405Z,27.4
2022-08-15T13:43:11.714Z,27.5
2022-08-15T13:44:03.877Z,27.8
2022-08-15T13:45:03.893Z,28.1